sensor_id;sensor_type;location;lat;lon;timestamp;pressure;altitude;pressure_sealevel;temperature;humidity
9746;BME280;4912;50.836;12.958;2023-02-22T00:02:30;97877.88;;;10.74;86.81
9746;BME280;4912;50.836;12.958;2023-02-22T00:05:05;97876.22;;;10.67;86.84
9746;BME280;4912;50.836;12.958;2023-02-22T00:07:36;97869.13;;;10.75;86.61
9746;BME280;4912;50.836;12.958;2023-02-22T00:10:07;97869.06;;;10.84;86.23
9746;BME280;4912;50.836;12.958;2023-02-22T00:12:40;97873.09;;;10.83;86.17
9746;BME280;4912;50.836;12.958;2023-02-22T00:15:10;97866.91;;;10.88;85.69
9746;BME280;4912;50.836;12.958;2023-02-22T00:17:43;97857.53;;;10.86;85.93
9746;BME280;4912;50.836;12.958;2023-02-22T00:20:16;97865.84;;;10.86;85.80
9746;BME280;4912;50.836;12.958;2023-02-22T00:22:50;97864.34;;;10.76;86.67
9746;BME280;4912;50.836;12.958;2023-02-22T00:25:23;97868.28;;;10.93;85.72
9746;BME280;4912;50.836;12.958;2023-02-22T00:27:54;97859.91;;;11.02;85.46
9746;BME280;4912;50.836;12.958;2023-02-22T00:30:27;97867.41;;;11.11;84.92
9746;BME280;4912;50.836;12.958;2023-02-22T00:32:59;97869.84;;;11.18;84.70
9746;BME280;4912;50.836;12.958;2023-02-22T00:35:35;97860.59;;;11.21;84.19
9746;BME280;4912;50.836;12.958;2023-02-22T00:38:06;97865.19;;;11.24;84.04
9746;BME280;4912;50.836;12.958;2023-02-22T00:40:37;97858.25;;;11.28;85.27
9746;BME280;4912;50.836;12.958;2023-02-22T00:43:08;97858.69;;;11.27;84.82
9746;BME280;4912;50.836;12.958;2023-02-22T00:45:40;97864.09;;;11.30;84.52
9746;BME280;4912;50.836;12.958;2023-02-22T00:48:11;97859.47;;;11.27;83.72
9746;BME280;4912;50.836;12.958;2023-02-22T00:50:44;97863.81;;;11.19;83.79
9746;BME280;4912;50.836;12.958;2023-02-22T00:53:16;97862.59;;;11.20;83.21
9746;BME280;4912;50.836;12.958;2023-02-22T00:55:47;97860.94;;;11.14;83.39
9746;BME280;4912;50.836;12.958;2023-02-22T00:58:17;97859.75;;;11.05;83.75
9746;BME280;4912;50.836;12.958;2023-02-22T01:00:49;97859.41;;;11.13;83.68
9746;BME280;4912;50.836;12.958;2023-02-22T01:03:19;97858.78;;;11.18;83.39
9746;BME280;4912;50.836;12.958;2023-02-22T01:05:52;97864.88;;;11.22;82.98
9746;BME280;4912;50.836;12.958;2023-02-22T01:08:23;97857.16;;;11.26;83.00
9746;BME280;4912;50.836;12.958;2023-02-22T01:10:57;97856.25;;;11.29;82.84
9746;BME280;4912;50.836;12.958;2023-02-22T01:13:27;97847.94;;;11.29;83.35
9746;BME280;4912;50.836;12.958;2023-02-22T01:15:58;97848.22;;;11.31;83.46
9746;BME280;4912;50.836;12.958;2023-02-22T01:18:29;97839.44;;;11.32;83.57
9746;BME280;4912;50.836;12.958;2023-02-22T01:21:02;97843.63;;;11.28;82.86
9746;BME280;4912;50.836;12.958;2023-02-22T01:23:34;97841.91;;;11.30;82.81
9746;BME280;4912;50.836;12.958;2023-02-22T01:26:04;97843.03;;;11.24;82.71
9746;BME280;4912;50.836;12.958;2023-02-22T01:28:36;97840.31;;;11.15;83.05
9746;BME280;4912;50.836;12.958;2023-02-22T01:31:07;97842.06;;;11.03;83.88
9746;BME280;4912;50.836;12.958;2023-02-22T01:33:39;97837.94;;;10.98;84.24
9746;BME280;4912;50.836;12.958;2023-02-22T01:36:13;97820.00;;;10.94;84.69
9746;BME280;4912;50.836;12.958;2023-02-22T01:38:45;97821.22;;;10.93;84.84
9746;BME280;4912;50.836;12.958;2023-02-22T01:41:15;97817.38;;;10.90;85.13
9746;BME280;4912;50.836;12.958;2023-02-22T01:43:46;97819.22;;;10.93;85.08
9746;BME280;4912;50.836;12.958;2023-02-22T01:46:21;97820.41;;;11.01;84.75
9746;BME280;4912;50.836;12.958;2023-02-22T01:48:55;97827.94;;;11.01;84.83
9746;BME280;4912;50.836;12.958;2023-02-22T01:51:34;97820.75;;;10.94;84.88
9746;BME280;4912;50.836;12.958;2023-02-22T01:54:09;97823.22;;;10.92;85.01
9746;BME280;4912;50.836;12.958;2023-02-22T01:56:47;97824.06;;;10.75;86.37
9746;BME280;4912;50.836;12.958;2023-02-22T01:59:21;97818.22;;;10.82;86.06
9746;BME280;4912;50.836;12.958;2023-02-22T02:01:52;97814.34;;;10.88;85.94
9746;BME280;4912;50.836;12.958;2023-02-22T02:04:23;97812.44;;;10.94;85.65
9746;BME280;4912;50.836;12.958;2023-02-22T02:09:56;97815.88;;;10.89;85.66
9746;BME280;4912;50.836;12.958;2023-02-22T02:12:31;97805.53;;;10.90;85.60
9746;BME280;4912;50.836;12.958;2023-02-22T02:15:17;97807.56;;;10.89;85.71
9746;BME280;4912;50.836;12.958;2023-02-22T02:17:51;97807.19;;;10.96;85.41
9746;BME280;4912;50.836;12.958;2023-02-22T02:20:26;97805.63;;;11.04;85.02
9746;BME280;4912;50.836;12.958;2023-02-22T02:23:16;97801.88;;;11.07;84.71
9746;BME280;4912;50.836;12.958;2023-02-22T02:32:38;97793.31;;;11.05;84.74
9746;BME280;4912;50.836;12.958;2023-02-22T02:35:20;97793.00;;;11.03;84.70
9746;BME280;4912;50.836;12.958;2023-02-22T02:38:03;97786.53;;;11.06;84.44
9746;BME280;4912;50.836;12.958;2023-02-22T02:40:43;97785.13;;;11.11;84.18
9746;BME280;4912;50.836;12.958;2023-02-22T02:43:25;97786.47;;;11.16;84.03
9746;BME280;4912;50.836;12.958;2023-02-22T02:46:04;97784.94;;;11.15;83.65
9746;BME280;4912;50.836;12.958;2023-02-22T02:48:43;97781.69;;;11.16;83.59
9746;BME280;4912;50.836;12.958;2023-02-22T02:51:17;97778.94;;;11.16;83.68
9746;BME280;4912;50.836;12.958;2023-02-22T02:53:51;97772.03;;;11.12;84.78
9746;BME280;4912;50.836;12.958;2023-02-22T02:56:23;97768.38;;;11.05;84.87
9746;BME280;4912;50.836;12.958;2023-02-22T02:58:53;97767.81;;;11.01;84.98
9746;BME280;4912;50.836;12.958;2023-02-22T03:01:37;97772.84;;;11.03;84.78
9746;BME280;4912;50.836;12.958;2023-02-22T03:04:36;97769.94;;;11.06;84.50
9746;BME280;4912;50.836;12.958;2023-02-22T03:07:23;97779.75;;;11.07;84.50
9746;BME280;4912;50.836;12.958;2023-02-22T03:10:11;97772.97;;;11.08;84.45
9746;BME280;4912;50.836;12.958;2023-02-22T03:12:56;97764.19;;;11.10;84.62
9746;BME280;4912;50.836;12.958;2023-02-22T03:15:43;97767.28;;;11.12;84.32
9746;BME280;4912;50.836;12.958;2023-02-22T03:18:24;97762.50;;;11.13;84.51
9746;BME280;4912;50.836;12.958;2023-02-22T03:21:09;97764.50;;;11.12;84.32
9746;BME280;4912;50.836;12.958;2023-02-22T03:23:46;97765.72;;;11.11;84.64
9746;BME280;4912;50.836;12.958;2023-02-22T03:26:26;97757.91;;;11.09;85.20
9746;BME280;4912;50.836;12.958;2023-02-22T03:29:03;97758.09;;;11.06;84.96
9746;BME280;4912;50.836;12.958;2023-02-22T03:31:39;97755.66;;;10.99;85.29
9746;BME280;4912;50.836;12.958;2023-02-22T03:34:18;97755.25;;;10.91;85.81
9746;BME280;4912;50.836;12.958;2023-02-22T03:36:58;97753.72;;;10.90;86.06
9746;BME280;4912;50.836;12.958;2023-02-22T03:39:34;97750.47;;;10.92;85.93
9746;BME280;4912;50.836;12.958;2023-02-22T03:42:08;97754.31;;;10.94;86.08
9746;BME280;4912;50.836;12.958;2023-02-22T03:44:42;97759.19;;;10.99;85.68
9746;BME280;4912;50.836;12.958;2023-02-22T03:47:17;97760.44;;;10.98;85.72
9746;BME280;4912;50.836;12.958;2023-02-22T03:49:54;97751.81;;;10.96;85.67
9746;BME280;4912;50.836;12.958;2023-02-22T03:52:29;97750.31;;;10.95;85.71
9746;BME280;4912;50.836;12.958;2023-02-22T03:55:02;97754.31;;;10.94;85.81
9746;BME280;4912;50.836;12.958;2023-02-22T03:57:39;97763.56;;;10.91;85.53
9746;BME280;4912;50.836;12.958;2023-02-22T04:00:14;97754.22;;;10.89;85.64
9746;BME280;4912;50.836;12.958;2023-02-22T04:02:46;97755.91;;;10.86;85.65
9746;BME280;4912;50.836;12.958;2023-02-22T04:05:19;97754.09;;;10.83;85.92
9746;BME280;4912;50.836;12.958;2023-02-22T04:07:54;97759.91;;;10.85;86.40
9746;BME280;4912;50.836;12.958;2023-02-22T04:10:26;97756.97;;;10.89;86.40
9746;BME280;4912;50.836;12.958;2023-02-22T04:13:01;97759.25;;;10.90;86.59
9746;BME280;4912;50.836;12.958;2023-02-22T04:15:35;97758.78;;;10.92;86.06
9746;BME280;4912;50.836;12.958;2023-02-22T04:18:08;97750.66;;;10.88;85.73
9746;BME280;4912;50.836;12.958;2023-02-22T04:20:38;97755.25;;;10.91;85.49
9746;BME280;4912;50.836;12.958;2023-02-22T04:23:20;97751.72;;;10.91;85.42
9746;BME280;4912;50.836;12.958;2023-02-22T04:25:53;97759.44;;;10.87;85.99
9746;BME280;4912;50.836;12.958;2023-02-22T04:28:23;97758.19;;;10.88;85.85
9746;BME280;4912;50.836;12.958;2023-02-22T04:31:14;97760.31;;;10.93;85.56
9746;BME280;4912;50.836;12.958;2023-02-22T04:33:45;97762.44;;;10.98;84.82
9746;BME280;4912;50.836;12.958;2023-02-22T04:36:20;97758.63;;;10.95;84.57
9746;BME280;4912;50.836;12.958;2023-02-22T04:38:54;97754.31;;;10.94;84.42
9746;BME280;4912;50.836;12.958;2023-02-22T04:41:26;97751.44;;;10.89;84.86
9746;BME280;4912;50.836;12.958;2023-02-22T04:43:57;97747.41;;;10.90;85.25
9746;BME280;4912;50.836;12.958;2023-02-22T04:46:29;97742.47;;;10.94;85.29
9746;BME280;4912;50.836;12.958;2023-02-22T04:49:01;97745.81;;;10.98;84.95
9746;BME280;4912;50.836;12.958;2023-02-22T04:51:34;97743.81;;;10.98;85.42
9746;BME280;4912;50.836;12.958;2023-02-22T04:54:10;97738.19;;;10.93;85.62
9746;BME280;4912;50.836;12.958;2023-02-22T04:56:45;97742.94;;;10.92;85.53
9746;BME280;4912;50.836;12.958;2023-02-22T04:59:15;97740.19;;;10.92;85.58
9746;BME280;4912;50.836;12.958;2023-02-22T05:01:52;97744.19;;;10.91;85.74
9746;BME280;4912;50.836;12.958;2023-02-22T05:04:23;97737.88;;;10.91;86.19
9746;BME280;4912;50.836;12.958;2023-02-22T05:06:53;97734.53;;;10.87;85.46
9746;BME280;4912;50.836;12.958;2023-02-22T05:09:26;97737.47;;;10.83;85.76
9746;BME280;4912;50.836;12.958;2023-02-22T05:11:56;97736.09;;;10.79;86.37
9746;BME280;4912;50.836;12.958;2023-02-22T05:14:27;97736.09;;;10.79;86.60
9746;BME280;4912;50.836;12.958;2023-02-22T05:16:58;97726.75;;;10.76;86.57
9746;BME280;4912;50.836;12.958;2023-02-22T05:19:29;97730.94;;;10.72;86.32
9746;BME280;4912;50.836;12.958;2023-02-22T05:21:59;97729.88;;;10.69;86.61
9746;BME280;4912;50.836;12.958;2023-02-22T05:24:34;97731.28;;;10.64;87.28
9746;BME280;4912;50.836;12.958;2023-02-22T05:27:04;97728.69;;;10.61;87.56
9746;BME280;4912;50.836;12.958;2023-02-22T05:29:34;97727.78;;;10.55;87.56
9746;BME280;4912;50.836;12.958;2023-02-22T05:32:05;97728.56;;;10.55;87.60
9746;BME280;4912;50.836;12.958;2023-02-22T05:34:36;97721.03;;;10.56;87.45
9746;BME280;4912;50.836;12.958;2023-02-22T05:37:06;97720.38;;;10.61;87.16
9746;BME280;4912;50.836;12.958;2023-02-22T05:39:39;97718.03;;;10.68;86.77
9746;BME280;4912;50.836;12.958;2023-02-22T05:42:12;97730.00;;;10.75;86.30
9746;BME280;4912;50.836;12.958;2023-02-22T05:44:42;97719.09;;;10.71;86.21
9746;BME280;4912;50.836;12.958;2023-02-22T05:47:13;97718.22;;;10.65;86.12
9746;BME280;4912;50.836;12.958;2023-02-22T05:49:44;97719.59;;;10.60;86.33
9746;BME280;4912;50.836;12.958;2023-02-22T05:52:14;97716.22;;;10.65;86.36
9746;BME280;4912;50.836;12.958;2023-02-22T05:54:47;97721.91;;;10.62;86.08
9746;BME280;4912;50.836;12.958;2023-02-22T05:57:17;97712.56;;;10.59;86.18
9746;BME280;4912;50.836;12.958;2023-02-22T05:59:48;97721.16;;;10.61;86.04
9746;BME280;4912;50.836;12.958;2023-02-22T06:02:18;97712.19;;;10.66;85.88
9746;BME280;4912;50.836;12.958;2023-02-22T06:04:48;97714.81;;;10.70;85.36
9746;BME280;4912;50.836;12.958;2023-02-22T06:07:19;97717.00;;;10.66;85.69
9746;BME280;4912;50.836;12.958;2023-02-22T06:09:52;97710.38;;;10.63;85.92
9746;BME280;4912;50.836;12.958;2023-02-22T06:12:22;97717.00;;;10.66;86.46
9746;BME280;4912;50.836;12.958;2023-02-22T06:14:53;97715.84;;;10.73;86.49
9746;BME280;4912;50.836;12.958;2023-02-22T06:17:23;97718.81;;;10.69;85.96
9746;BME280;4912;50.836;12.958;2023-02-22T06:19:54;97726.91;;;10.73;85.72
9746;BME280;4912;50.836;12.958;2023-02-22T06:22:24;97721.69;;;10.75;85.63
9746;BME280;4912;50.836;12.958;2023-02-22T06:24:57;97720.28;;;10.79;85.60
9746;BME280;4912;50.836;12.958;2023-02-22T06:27:29;97720.22;;;10.88;84.99
9746;BME280;4912;50.836;12.958;2023-02-22T06:30:01;97732.34;;;10.91;84.71
9746;BME280;4912;50.836;12.958;2023-02-22T06:32:31;97728.22;;;10.86;84.74
9746;BME280;4912;50.836;12.958;2023-02-22T06:35:02;97723.75;;;10.89;84.54
9746;BME280;4912;50.836;12.958;2023-02-22T06:37:33;97726.16;;;10.96;84.42
9746;BME280;4912;50.836;12.958;2023-02-22T06:40:08;97735.53;;;10.98;84.96
9746;BME280;4912;50.836;12.958;2023-02-22T06:42:39;97729.91;;;11.07;84.79
9746;BME280;4912;50.836;12.958;2023-02-22T06:45:10;97736.03;;;11.12;84.37
9746;BME280;4912;50.836;12.958;2023-02-22T06:47:40;97732.03;;;11.13;84.00
9746;BME280;4912;50.836;12.958;2023-02-22T06:50:19;97739.38;;;11.16;83.53
9746;BME280;4912;50.836;12.958;2023-02-22T06:52:51;97739.97;;;11.20;83.25
9746;BME280;4912;50.836;12.958;2023-02-22T06:55:26;97742.09;;;11.25;83.06
9746;BME280;4912;50.836;12.958;2023-02-22T06:57:57;97737.78;;;11.24;82.88
9746;BME280;4912;50.836;12.958;2023-02-22T07:00:29;97741.03;;;11.22;82.63
9746;BME280;4912;50.836;12.958;2023-02-22T07:03:00;97746.38;;;11.26;82.31
9746;BME280;4912;50.836;12.958;2023-02-22T07:05:30;97737.72;;;11.33;82.22
9746;BME280;4912;50.836;12.958;2023-02-22T07:08:03;97745.66;;;11.40;81.64
9746;BME280;4912;50.836;12.958;2023-02-22T07:10:39;97737.91;;;11.44;81.08
9746;BME280;4912;50.836;12.958;2023-02-22T07:13:09;97739.00;;;11.46;81.21
9746;BME280;4912;50.836;12.958;2023-02-22T07:15:41;97737.91;;;11.44;81.44
9746;BME280;4912;50.836;12.958;2023-02-22T07:18:11;97744.69;;;11.43;81.84
9746;BME280;4912;50.836;12.958;2023-02-22T07:20:42;97740.31;;;11.51;82.05
9746;BME280;4912;50.836;12.958;2023-02-22T07:23:13;97738.63;;;11.54;82.24
9746;BME280;4912;50.836;12.958;2023-02-22T07:25:46;97744.84;;;11.63;81.29
9746;BME280;4912;50.836;12.958;2023-02-22T07:28:16;97744.16;;;11.68;80.80
9746;BME280;4912;50.836;12.958;2023-02-22T07:30:46;97747.50;;;11.72;80.75
9746;BME280;4912;50.836;12.958;2023-02-22T07:33:16;97749.66;;;11.77;80.19
9746;BME280;4912;50.836;12.958;2023-02-22T07:35:47;97744.97;;;11.83;79.58
9746;BME280;4912;50.836;12.958;2023-02-22T07:38:17;97751.66;;;11.92;79.25
9746;BME280;4912;50.836;12.958;2023-02-22T07:40:51;97753.50;;;11.95;79.05
9746;BME280;4912;50.836;12.958;2023-02-22T07:43:23;97757.59;;;11.99;79.05
9746;BME280;4912;50.836;12.958;2023-02-22T07:45:58;97751.84;;;12.03;79.31
9746;BME280;4912;50.836;12.958;2023-02-22T07:48:29;97753.75;;;12.11;79.10
9746;BME280;4912;50.836;12.958;2023-02-22T07:50:59;97751.06;;;12.17;78.61
9746;BME280;4912;50.836;12.958;2023-02-22T07:53:30;97747.31;;;12.20;77.66
9746;BME280;4912;50.836;12.958;2023-02-22T07:56:04;97754.41;;;12.21;77.98
9746;BME280;4912;50.836;12.958;2023-02-22T07:58:34;97754.50;;;12.26;77.39
9746;BME280;4912;50.836;12.958;2023-02-22T08:01:04;97751.25;;;12.28;77.27
9746;BME280;4912;50.836;12.958;2023-02-22T08:03:34;97742.63;;;12.26;77.61
9746;BME280;4912;50.836;12.958;2023-02-22T08:06:05;97751.03;;;12.31;77.74
9746;BME280;4912;50.836;12.958;2023-02-22T08:08:36;97756.03;;;12.42;77.70
9746;BME280;4912;50.836;12.958;2023-02-22T08:11:09;97751.78;;;12.47;77.11
9746;BME280;4912;50.836;12.958;2023-02-22T08:13:39;97749.88;;;12.53;76.96
9746;BME280;4912;50.836;12.958;2023-02-22T08:16:09;97752.16;;;12.54;75.51
9746;BME280;4912;50.836;12.958;2023-02-22T08:18:39;97747.09;;;12.53;75.08
9746;BME280;4912;50.836;12.958;2023-02-22T08:21:09;97751.97;;;12.43;75.01
9746;BME280;4912;50.836;12.958;2023-02-22T08:23:39;97751.72;;;12.41;75.29
9746;BME280;4912;50.836;12.958;2023-02-22T08:26:12;97745.41;;;12.41;75.39
9746;BME280;4912;50.836;12.958;2023-02-22T08:28:44;97742.31;;;12.39;75.57
9746;BME280;4912;50.836;12.958;2023-02-22T08:31:14;97750.47;;;12.42;75.86
9746;BME280;4912;50.836;12.958;2023-02-22T08:33:46;97744.91;;;12.42;75.83
9746;BME280;4912;50.836;12.958;2023-02-22T08:36:17;97751.78;;;12.47;75.98
9746;BME280;4912;50.836;12.958;2023-02-22T08:38:47;97751.31;;;12.48;76.02
9746;BME280;4912;50.836;12.958;2023-02-22T08:41:20;97744.03;;;12.51;75.64
9746;BME280;4912;50.836;12.958;2023-02-22T08:43:50;97742.03;;;12.51;75.81
9746;BME280;4912;50.836;12.958;2023-02-22T08:46:20;97741.25;;;12.51;76.06
9746;BME280;4912;50.836;12.958;2023-02-22T08:48:52;97741.31;;;12.56;76.07
9746;BME280;4912;50.836;12.958;2023-02-22T08:51:22;97737.59;;;12.59;76.19
9746;BME280;4912;50.836;12.958;2023-02-22T08:53:53;97736.16;;;12.64;75.81
9746;BME280;4912;50.836;12.958;2023-02-22T08:56:26;97735.66;;;12.65;76.12
9746;BME280;4912;50.836;12.958;2023-02-22T08:58:56;97741.22;;;12.65;76.21
9746;BME280;4912;50.836;12.958;2023-02-22T09:01:26;97730.66;;;12.69;75.83
9746;BME280;4912;50.836;12.958;2023-02-22T09:03:59;97734.69;;;12.68;76.10
9746;BME280;4912;50.836;12.958;2023-02-22T09:06:29;97736.22;;;12.69;75.64
9746;BME280;4912;50.836;12.958;2023-02-22T09:08:59;97738.03;;;12.72;75.42
9746;BME280;4912;50.836;12.958;2023-02-22T09:11:32;97733.59;;;12.81;75.28
9746;BME280;4912;50.836;12.958;2023-02-22T09:14:03;97733.13;;;12.82;75.12
9746;BME280;4912;50.836;12.958;2023-02-22T09:16:33;97735.28;;;12.93;74.63
9746;BME280;4912;50.836;12.958;2023-02-22T09:19:03;97731.53;;;12.96;73.99
9746;BME280;4912;50.836;12.958;2023-02-22T09:21:33;97738.59;;;12.97;73.63
9746;BME280;4912;50.836;12.958;2023-02-22T09:24:04;97730.78;;;12.95;72.23
9746;BME280;4912;50.836;12.958;2023-02-22T09:26:37;97727.56;;;13.02;72.19
9746;BME280;4912;50.836;12.958;2023-02-22T09:29:08;97731.69;;;13.07;71.36
9746;BME280;4912;50.836;12.958;2023-02-22T09:31:39;97724.19;;;13.13;70.88
9746;BME280;4912;50.836;12.958;2023-02-22T09:34:10;97727.81;;;13.19;70.22
9746;BME280;4912;50.836;12.958;2023-02-22T09:36:41;97735.22;;;13.28;69.70
9746;BME280;4912;50.836;12.958;2023-02-22T09:39:12;97730.16;;;13.26;68.58
9746;BME280;4912;50.836;12.958;2023-02-22T09:41:48;97727.50;;;13.37;68.29
9746;BME280;4912;50.836;12.958;2023-02-22T09:44:24;97725.53;;;13.43;67.82
9746;BME280;4912;50.836;12.958;2023-02-22T09:46:57;97720.59;;;13.53;67.82
9746;BME280;4912;50.836;12.958;2023-02-22T09:49:28;97718.59;;;13.53;67.09
9746;BME280;4912;50.836;12.958;2023-02-22T09:52:04;97715.09;;;13.59;67.13
9746;BME280;4912;50.836;12.958;2023-02-22T09:54:37;97711.16;;;13.71;67.40
9746;BME280;4912;50.836;12.958;2023-02-22T09:57:13;97710.75;;;13.78;66.78
9746;BME280;4912;50.836;12.958;2023-02-22T09:59:47;97707.53;;;13.90;66.50
9746;BME280;4912;50.836;12.958;2023-02-22T10:02:25;97711.91;;;13.97;65.99
9746;BME280;4912;50.836;12.958;2023-02-22T10:04:59;97711.47;;;14.04;65.29
9746;BME280;4912;50.836;12.958;2023-02-22T10:07:35;97706.75;;;14.16;65.26
9746;BME280;4912;50.836;12.958;2023-02-22T10:10:10;97716.41;;;14.26;64.90
9746;BME280;4912;50.836;12.958;2023-02-22T10:12:47;97706.91;;;14.38;64.31
9746;BME280;4912;50.836;12.958;2023-02-22T10:15:31;97701.66;;;14.46;64.03
9746;BME280;4912;50.836;12.958;2023-02-22T10:21:30;97707.75;;;14.50;63.83
9746;BME280;4912;50.836;12.958;2023-02-22T10:24:07;97700.22;;;14.61;64.27
9746;BME280;4912;50.836;12.958;2023-02-22T10:26:45;97697.00;;;14.74;63.48
9746;BME280;4912;50.836;12.958;2023-02-22T10:29:18;97704.16;;;14.86;63.22
9746;BME280;4912;50.836;12.958;2023-02-22T10:31:56;97696.88;;;14.94;62.75
9746;BME280;4912;50.836;12.958;2023-02-22T10:34:29;97689.03;;;15.04;62.14
9746;BME280;4912;50.836;12.958;2023-02-22T10:37:18;97691.66;;;15.24;61.00
9746;BME280;4912;50.836;12.958;2023-02-22T10:39:54;97683.34;;;15.41;60.53
9746;BME280;4912;50.836;12.958;2023-02-22T10:42:31;97680.78;;;15.32;60.29
9746;BME280;4912;50.836;12.958;2023-02-22T10:45:03;97689.91;;;15.38;60.81
9746;BME280;4912;50.836;12.958;2023-02-22T10:47:34;97687.66;;;15.47;61.12
9746;BME280;4912;50.836;12.958;2023-02-22T10:50:05;97678.31;;;15.62;60.46
9746;BME280;4912;50.836;12.958;2023-02-22T10:52:35;97688.75;;;15.72;60.64
9746;BME280;4912;50.836;12.958;2023-02-22T10:55:11;97682.16;;;15.81;60.94
9746;BME280;4912;50.836;12.958;2023-02-22T10:57:43;97674.81;;;15.78;59.61
9746;BME280;4912;50.836;12.958;2023-02-22T11:00:18;97681.41;;;15.80;61.05
9746;BME280;4912;50.836;12.958;2023-02-22T11:02:52;97678.38;;;15.78;60.42
9746;BME280;4912;50.836;12.958;2023-02-22T11:05:27;97674.56;;;15.76;60.28
9746;BME280;4912;50.836;12.958;2023-02-22T11:08:12;97673.03;;;15.75;60.21
9746;BME280;4912;50.836;12.958;2023-02-22T11:10:43;97672.03;;;15.67;59.85
9746;BME280;4912;50.836;12.958;2023-02-22T11:13:17;97675.81;;;15.69;59.81
9746;BME280;4912;50.836;12.958;2023-02-22T11:15:57;97670.22;;;15.69;60.07
9746;BME280;4912;50.836;12.958;2023-02-22T11:18:30;97665.41;;;15.70;60.36
9746;BME280;4912;50.836;12.958;2023-02-22T11:21:03;97660.88;;;15.78;60.17
9746;BME280;4912;50.836;12.958;2023-02-22T11:23:36;97661.09;;;15.85;60.25
9746;BME280;4912;50.836;12.958;2023-02-22T11:26:10;97660.88;;;15.89;59.13
9746;BME280;4912;50.836;12.958;2023-02-22T11:28:43;97656.28;;;15.97;58.69
9746;BME280;4912;50.836;12.958;2023-02-22T11:31:20;97650.47;;;15.89;57.94
9746;BME280;4912;50.836;12.958;2023-02-22T11:33:52;97652.00;;;15.96;57.94
9746;BME280;4912;50.836;12.958;2023-02-22T11:36:29;97657.06;;;15.86;58.21
9746;BME280;4912;50.836;12.958;2023-02-22T11:39:19;97645.88;;;15.97;58.21
9746;BME280;4912;50.836;12.958;2023-02-22T11:41:51;97649.44;;;16.04;58.00
9746;BME280;4912;50.836;12.958;2023-02-22T11:44:22;97642.84;;;16.07;58.20
9746;BME280;4912;50.836;12.958;2023-02-22T11:46:56;97642.84;;;16.01;57.80
9746;BME280;4912;50.836;12.958;2023-02-22T11:49:32;97637.00;;;15.93;57.96
9746;BME280;4912;50.836;12.958;2023-02-22T11:52:07;97627.38;;;15.89;58.58
9746;BME280;4912;50.836;12.958;2023-02-22T11:54:47;97627.88;;;15.87;58.62
9746;BME280;4912;50.836;12.958;2023-02-22T11:57:32;97629.16;;;15.86;59.16
9746;BME280;4912;50.836;12.958;2023-02-22T12:00:14;97629.41;;;15.83;59.14
9746;BME280;4912;50.836;12.958;2023-02-22T12:06:06;97622.56;;;15.95;59.18
9746;BME280;4912;50.836;12.958;2023-02-22T12:08:49;97628.34;;;16.08;59.22
9746;BME280;4912;50.836;12.958;2023-02-22T12:11:26;97617.72;;;16.12;57.95
9746;BME280;4912;50.836;12.958;2023-02-22T12:14:05;97615.69;;;16.07;57.84
9746;BME280;4912;50.836;12.958;2023-02-22T12:16:43;97612.63;;;16.16;57.55
9746;BME280;4912;50.836;12.958;2023-02-22T12:19:24;97611.31;;;16.34;57.40
9746;BME280;4912;50.836;12.958;2023-02-22T12:22:00;97607.72;;;16.45;56.69
9746;BME280;4912;50.836;12.958;2023-02-22T12:24:35;97611.53;;;16.53;56.18
9746;BME280;4912;50.836;12.958;2023-02-22T12:27:07;97608.22;;;16.65;55.88
9746;BME280;4912;50.836;12.958;2023-02-22T12:29:41;97606.09;;;16.83;55.91
9746;BME280;4912;50.836;12.958;2023-02-22T12:32:14;97599.97;;;16.90;55.92
9746;BME280;4912;50.836;12.958;2023-02-22T12:34:47;97598.47;;;16.83;55.65
9746;BME280;4912;50.836;12.958;2023-02-22T12:37:23;97599.78;;;16.76;55.29
9746;BME280;4912;50.836;12.958;2023-02-22T12:39:58;97604.28;;;16.85;55.13
9746;BME280;4912;50.836;12.958;2023-02-22T12:42:38;97599.47;;;16.86;55.50
9746;BME280;4912;50.836;12.958;2023-02-22T12:45:21;97598.47;;;16.89;54.71
9746;BME280;4912;50.836;12.958;2023-02-22T12:48:00;97594.38;;;16.90;53.63
9746;BME280;4912;50.836;12.958;2023-02-22T12:50:49;97588.03;;;16.89;54.59
9746;BME280;4912;50.836;12.958;2023-02-22T12:53:27;97591.50;;;17.06;54.15
9746;BME280;4912;50.836;12.958;2023-02-22T12:56:03;97594.41;;;17.31;53.27
9746;BME280;4912;50.836;12.958;2023-02-22T12:58:45;97589.16;;;17.51;52.53
9746;BME280;4912;50.836;12.958;2023-02-22T13:01:21;97583.94;;;17.72;52.60
9746;BME280;4912;50.836;12.958;2023-02-22T13:03:55;97585.28;;;17.66;52.10
9746;BME280;4912;50.836;12.958;2023-02-22T13:06:42;97580.69;;;17.92;51.91
9746;BME280;4912;50.836;12.958;2023-02-22T13:09:27;97570.88;;;20.11;46.03
9746;BME280;4912;50.836;12.958;2023-02-22T13:12:15;97575.00;;;21.77;41.88
9746;BME280;4912;50.836;12.958;2023-02-22T13:14:51;97562.16;;;23.03;38.54
9746;BME280;4912;50.836;12.958;2023-02-22T13:17:31;97558.16;;;24.18;37.08
9746;BME280;4912;50.836;12.958;2023-02-22T13:20:07;97557.47;;;24.95;34.62
9746;BME280;4912;50.836;12.958;2023-02-22T13:22:45;97566.16;;;25.29;33.74
9746;BME280;4912;50.836;12.958;2023-02-22T13:25:21;97558.16;;;25.43;33.33
9746;BME280;4912;50.836;12.958;2023-02-22T13:27:57;97551.88;;;25.52;32.53
9746;BME280;4912;50.836;12.958;2023-02-22T13:30:34;97561.75;;;26.01;32.84
9746;BME280;4912;50.836;12.958;2023-02-22T13:33:13;97553.19;;;26.08;32.10
9746;BME280;4912;50.836;12.958;2023-02-22T13:36:06;97557.47;;;25.67;32.34
9746;BME280;4912;50.836;12.958;2023-02-22T13:41:52;97552.16;;;24.99;33.22
9746;BME280;4912;50.836;12.958;2023-02-22T13:44:36;97545.25;;;24.70;33.40
9746;BME280;4912;50.836;12.958;2023-02-22T13:47:31;97551.94;;;24.42;34.42
9746;BME280;4912;50.836;12.958;2023-02-22T13:50:25;97549.72;;;24.25;34.40
9746;BME280;4912;50.836;12.958;2023-02-22T13:53:02;97546.88;;;24.02;34.79
9746;BME280;4912;50.836;12.958;2023-02-22T13:55:35;97546.50;;;23.76;34.91
9746;BME280;4912;50.836;12.958;2023-02-22T13:58:10;97550.38;;;23.35;35.66
9746;BME280;4912;50.836;12.958;2023-02-22T14:00:46;97549.00;;;23.13;36.05
9746;BME280;4912;50.836;12.958;2023-02-22T14:03:31;97542.69;;;22.84;36.82
9746;BME280;4912;50.836;12.958;2023-02-22T14:06:07;97538.50;;;22.41;37.53
9746;BME280;4912;50.836;12.958;2023-02-22T14:08:39;97538.31;;;22.11;38.44